Time,TemperatureF,DewpointF,PressureIn,WindDirection,WindDirectionDegrees,WindSpeedMPH,WindSpeedGustMPH,Humidity,HourlyPrecipIn,Conditions,Clouds,dailyrainin,SoftwareType,DateUTC
2013-03-03 00:01:00,37.0,-1.4,30.24,SW,221,15.0,15.0,19,-99.99,,---,-99.99,VWS V14.01,2013-03-03 08:01:00,
2013-03-03 00:06:00,36.7,-1.7,30.24,SW,221,15.0,15.0,19,-99.99,,---,-99.99,VWS V14.01,2013-03-03 08:06:00,
2013-03-03 00:11:00,36.7,-1.7,30.24,SSW,200,16.3,16.3,19,-99.99,,---,-99.99,VWS V14.01,2013-03-03 08:11:00,
2013-03-03 00:16:00,37.6,-0.9,30.24,SW,216,17.0,17.0,19,-99.99,,---,-99.99,VWS V14.01,2013-03-03 08:16:00,
2013-03-03 00:21:00,37.2,-1.2,30.24,South,183,22.8,22.8,19,-99.99,,---,-99.99,VWS V14.01,2013-03-03 08:21:00,
2013-03-03 00:26:00,37.0,-1.4,30.24,South,183,22.8,22.8,19,-99.99,,---,-99.99,VWS V14.01,2013-03-03 08:26:00,
2013-03-03 00:31:00,37.0,-1.4,30.24,SSE,157,18.3,18.3,19,-99.99,,---,-99.99,VWS V14.01,2013-03-03 08:31:00,
2013-03-03 00:36:00,37.4,-1.1,30.24,SSE,154,23.7,23.7,19,-99.99,,---,-99.99,VWS V14.01,2013-03-03 08:36:00,
2013-03-03 00:41:00,38.1,1.6,30.24,SSE,154,23.7,23.7,21,-99.99,,---,-99.99,VWS V14.01,2013-03-03 08:41:00,
2013-03-03 00:46:00,38.1,1.6,30.24,SSE,154,19.2,19.2,21,-99.99,,---,-99.99,VWS V14.01,2013-03-03 08:46:00,
2013-03-03 00:51:00,38.3,1.8,30.24,SSE,158,19.7,19.7,21,-99.99,,---,-99.99,VWS V14.01,2013-03-03 08:51:00,
2013-03-03 00:56:00,38.3,1.8,30.24,South,189,19.7,19.7,21,-99.99,,---,-99.99,VWS V14.01,2013-03-03 08:56:00,
2013-03-03 01:01:00,38.3,1.8,30.24,South,189,19.7,19.7,21,-99.99,,---,-99.99,VWS V14.01,2013-03-03 09:01:00,
2013-03-03 01:06:00,39.0,2.4,30.24,SSE,153,15.4,15.4,21,-99.99,,---,-99.99,VWS V14.01,2013-03-03 09:06:00,
2013-03-03 01:11:00,39.0,2.4,30.24,SSE,160,16.8,16.8,21,-99.99,,---,-99.99,VWS V14.01,2013-03-03 09:11:00,
2013-03-03 01:16:00,39.2,2.6,30.24,SSE,160,16.8,16.8,21,-99.99,,---,-99.99,VWS V14.01,2013-03-03 09:16:00,
2013-03-03 01:21:00,39.2,2.6,30.24,South,182,16.8,16.8,21,-99.99,,---,-99.99,VWS V14.01,2013-03-03 09:21:00,
2013-03-03 01:26:00,39.0,2.4,30.24,SSE,152,16.3,16.3,21,-99.99,,---,-99.99,VWS V14.01,2013-03-03 09:26:00,
2013-03-03 01:31:00,39.0,2.4,30.24,SSE,158,13.2,13.2,21,-99.99,,---,-99.99,VWS V14.01,2013-03-03 09:31:00,
2013-03-03 01:36:00,38.7,2.1,30.24,SSE,158,13.2,13.2,21,-99.99,,---,-99.99,VWS V14.01,2013-03-03 09:36:00,
2013-03-03 01:41:00,38.7,2.1,30.21,SSE,163,25.7,25.7,21,-99.99,,---,-99.99,VWS V14.01,2013-03-03 09:41:00,
2013-03-03 01:46:00,38.7,2.1,30.21,SE,133,6.3,6.3,21,-99.99,,---,-99.99,VWS V14.01,2013-03-03 09:46:00,
2013-03-03 01:51:00,37.9,1.5,30.24,SE,133,6.3,6.3,21,-99.99,,---,-99.99,VWS V14.01,2013-03-03 09:51:00,
2013-03-03 01:56:00,37.9,1.5,30.24,SSE,150,5.4,5.4,21,-99.99,,---,-99.99,VWS V14.01,2013-03-03 09:56:00,
2013-03-03 02:01:00,36.9,1.6,30.24,SE,136,8.7,8.7,22,-99.99,,---,-99.99,VWS V14.01,2013-03-03 10:01:00,
2013-03-03 02:06:00,37.4,1.0,30.24,SE,139,12.3,12.3,21,-99.99,,---,-99.99,VWS V14.01,2013-03-03 10:06:00,
2013-03-03 02:11:00,37.4,1.0,30.21,SE,139,12.3,12.3,21,-99.99,,---,-99.99,VWS V14.01,2013-03-03 10:11:00,
2013-03-03 02:16:00,37.4,1.0,30.21,SE,135,15.4,15.4,21,-99.99,,---,-99.99,VWS V14.01,2013-03-03 10:16:00,
2013-03-03 02:21:00,37.4,1.0,30.21,SE,130,11.0,11.0,21,-99.99,,---,-99.99,VWS V14.01,2013-03-03 10:21:00,
2013-03-03 02:26:00,37.2,1.9,30.21,SE,130,11.0,11.0,22,-99.99,,---,-99.99,VWS V14.01,2013-03-03 10:26:00,
2013-03-03 02:31:00,37.2,1.9,30.21,SE,140,15.4,15.4,22,-99.99,,---,-99.99,VWS V14.01,2013-03-03 10:31:00,
2013-03-03 02:36:00,37.2,1.9,30.21,SSE,160,15.4,15.4,22,-99.99,,---,-99.99,VWS V14.01,2013-03-03 10:36:00,
2013-03-03 02:41:00,37.0,1.7,30.21,SE,146,12.8,12.8,22,-99.99,,---,-99.99,VWS V14.01,2013-03-03 10:41:00,
2013-03-03 02:46:00,37.0,1.7,30.21,SE,146,12.8,12.8,22,-99.99,,---,-99.99,VWS V14.01,2013-03-03 10:46:00,
2013-03-03 02:51:00,36.7,1.4,30.21,SSE,149,8.3,8.3,22,-99.99,,---,-99.99,VWS V14.01,2013-03-03 10:51:00,
2013-03-03 02:56:00,36.1,-2.1,30.21,SSE,167,8.1,8.1,19,-99.99,,---,-99.99,VWS V14.01,2013-03-03 10:56:00,
2013-03-03 03:01:00,35.8,-2.4,30.21,SSE,167,8.1,8.1,19,-99.99,,---,-99.99,VWS V14.01,2013-03-03 11:01:00,
2013-03-03 03:06:00,34.9,-2.1,30.21,South,185,8.3,8.3,20,-99.99,,---,-99.99,VWS V14.01,2013-03-03 11:06:00,
2013-03-03 03:11:00,34.9,-2.1,30.21,South,191,10.1,10.1,20,-99.99,,---,-99.99,VWS V14.01,2013-03-03 11:11:00,
2013-03-03 03:16:00,35.2,-1.8,30.21,SSE,156,11.0,11.0,20,-99.99,,---,-99.99,VWS V14.01,2013-03-03 11:16:00,
2013-03-03 03:21:00,35.2,-1.8,30.18,SSE,156,11.0,11.0,20,-99.99,,---,-99.99,VWS V14.01,2013-03-03 11:21:00,
2013-03-03 03:27:00,35.8,-2.4,30.18,South,178,12.8,12.8,19,-99.99,,---,-99.99,VWS V14.01,2013-03-03 11:27:00,
2013-03-03 03:32:00,35.8,-2.4,30.18,SSE,160,14.5,14.5,19,-99.99,,---,-99.99,VWS V14.01,2013-03-03 11:32:00,
2013-03-03 03:37:00,36.1,-2.1,30.18,SSE,168,11.0,14.5,19,-99.99,,---,-99.99,VWS V14.01,2013-03-03 11:37:00,
2013-03-03 03:42:00,36.0,-2.3,30.18,SSE,168,11.0,11.0,19,-99.99,,---,-99.99,VWS V14.01,2013-03-03 11:42:00,
2013-03-03 03:47:00,36.0,-2.3,30.18,South,174,11.9,11.9,19,-99.99,,---,-99.99,VWS V14.01,2013-03-03 11:47:00,
2013-03-03 03:52:00,36.1,-2.1,30.18,South,174,11.9,11.9,19,-99.99,,---,-99.99,VWS V14.01,2013-03-03 11:52:00,
2013-03-03 03:57:00,36.3,1.1,30.18,South,174,11.9,11.9,22,-99.99,,---,-99.99,VWS V14.01,2013-03-03 11:57:00,
2013-03-03 04:02:00,36.3,-2.0,30.18,South,174,11.9,11.9,19,-99.99,,---,-99.99,VWS V14.01,2013-03-03 12:02:00,
2013-03-03 04:07:00,36.3,-2.0,30.18,South,174,11.9,11.9,19,-99.99,,---,-99.99,VWS V14.01,2013-03-03 12:07:00,
2013-03-03 04:12:00,36.3,-2.0,30.18,South,187,16.8,16.8,19,-99.99,,---,-99.99,VWS V14.01,2013-03-03 12:12:00,
2013-03-03 04:17:00,36.7,1.4,30.18,South,187,16.8,16.8,22,-99.99,,---,-99.99,VWS V14.01,2013-03-03 12:17:00,
2013-03-03 04:22:00,36.7,1.4,30.18,South,186,17.4,17.4,22,-99.99,,---,-99.99,VWS V14.01,2013-03-03 12:22:00,
2013-03-03 04:27:00,36.9,1.6,30.18,South,170,22.4,22.4,22,-99.99,,---,-99.99,VWS V14.01,2013-03-03 12:27:00,
2013-03-03 04:32:00,36.9,1.6,30.18,South,179,22.4,22.4,22,-99.99,,---,-99.99,VWS V14.01,2013-03-03 12:32:00,
2013-03-03 04:37:00,36.9,1.6,30.18,South,174,14.5,14.5,22,-99.99,,---,-99.99,VWS V14.01,2013-03-03 12:37:00,
2013-03-03 04:42:00,36.1,-2.1,30.18,South,186,22.4,22.4,19,-99.99,,---,-99.99,VWS V14.01,2013-03-03 12:42:00,
2013-03-03 04:47:00,36.1,-2.1,30.18,South,180,22.4,22.4,19,-99.99,,---,-99.99,VWS V14.01,2013-03-03 12:47:00,
2013-03-03 04:52:00,36.0,-2.3,30.18,SSW,210,17.4,17.4,19,-99.99,,---,-99.99,VWS V14.01,2013-03-03 12:52:00,
2013-03-03 04:57:00,36.0,-2.3,30.18,SSW,200,13.2,13.2,19,-99.99,,---,-99.99,VWS V14.01,2013-03-03 12:57:00,
2013-03-03 05:02:00,34.7,-2.3,30.18,SSW,193,13.2,13.2,20,-99.99,,---,-99.99,VWS V14.01,2013-03-03 13:02:00,
2013-03-03 05:07:00,34.7,-2.3,30.18,SSW,203,12.8,15.4,20,-99.99,,---,-99.99,VWS V14.01,2013-03-03 13:07:00,
2013-03-03 05:12:00,34.7,-2.3,30.18,South,188,12.8,12.8,20,-99.99,,---,-99.99,VWS V14.01,2013-03-03 13:12:00,
2013-03-03 05:17:00,34.9,-2.1,30.18,SSW,204,17.0,17.0,20,-99.99,,---,-99.99,VWS V14.01,2013-03-03 13:17:00,
2013-03-03 05:22:00,34.9,-2.1,30.18,SSW,199,14.1,14.1,20,-99.99,,---,-99.99,VWS V14.01,2013-03-03 13:22:00,
2013-03-03 05:27:00,34.9,-2.1,30.18,SSW,203,17.0,17.0,20,-99.99,,---,-99.99,VWS V14.01,2013-03-03 13:27:00,
2013-03-03 05:32:00,34.9,-2.1,30.18,SSW,201,16.3,16.3,20,-99.99,,---,-99.99,VWS V14.01,2013-03-03 13:32:00,
2013-03-03 05:37:00,34.9,-2.1,30.18,SSW,205,13.2,13.2,20,-99.99,,---,-99.99,VWS V14.01,2013-03-03 13:37:00,
2013-03-03 05:42:00,34.9,-2.1,30.18,SW,218,15.4,15.4,20,-99.99,,---,-99.99,VWS V14.01,2013-03-03 13:42:00,
2013-03-03 05:47:00,34.9,-2.1,30.18,SSW,198,15.4,15.4,20,-99.99,,---,-99.99,VWS V14.01,2013-03-03 13:47:00,
2013-03-03 05:52:00,34.9,-2.1,30.18,SSW,205,15.4,15.4,20,-99.99,,---,-99.99,VWS V14.01,2013-03-03 13:52:00,
2013-03-03 05:57:00,34.9,-2.1,30.18,SSW,208,15.9,15.9,20,-99.99,,---,-99.99,VWS V14.01,2013-03-03 13:57:00,
2013-03-03 06:02:00,34.9,-2.1,30.18,SSW,197,15.4,15.4,20,-99.99,,---,-99.99,VWS V14.01,2013-03-03 14:02:00,
2013-03-03 06:07:00,34.9,-2.1,30.18,South,188,18.3,18.3,20,-99.99,,---,-99.99,VWS V14.01,2013-03-03 14:07:00,
2013-03-03 06:12:00,34.9,-2.1,30.18,SSW,208,13.2,13.2,20,-99.99,,---,-99.99,VWS V14.01,2013-03-03 14:12:00,
2013-03-03 06:17:00,34.9,-2.1,30.18,SSW,205,17.9,17.9,20,-99.99,,---,-99.99,VWS V14.01,2013-03-03 14:17:00,
2013-03-03 06:22:00,34.9,-2.1,30.18,SSW,195,17.4,17.4,20,-99.99,,---,-99.99,VWS V14.01,2013-03-03 14:22:00,
2013-03-03 06:27:00,34.9,-2.1,30.15,SSW,211,12.8,12.8,20,-99.99,,---,-99.99,VWS V14.01,2013-03-03 14:27:00,
2013-03-03 06:32:00,34.9,-2.1,30.15,SSW,201,16.3,16.3,20,-99.99,,---,-99.99,VWS V14.01,2013-03-03 14:32:00,
2013-03-03 06:37:00,34.9,-2.1,30.15,SSW,210,11.4,15.4,20,-99.99,,---,-99.99,VWS V14.01,2013-03-03 14:37:00,
2013-03-03 06:42:00,34.9,-2.1,30.15,SSW,211,13.2,13.2,20,-99.99,,---,-99.99,VWS V14.01,2013-03-03 14:42:00,
2013-03-03 06:47:00,34.9,-2.1,30.15,SSW,209,14.1,14.1,20,-99.99,,---,-99.99,VWS V14.01,2013-03-03 14:47:00,
2013-03-03 06:52:00,34.9,-2.1,30.15,SSW,205,16.8,16.8,20,-99.99,,---,-99.99,VWS V14.01,2013-03-03 14:52:00,
2013-03-03 06:57:00,34.9,-2.1,30.15,SSW,199,15.9,15.9,20,-99.99,,---,-99.99,VWS V14.01,2013-03-03 14:57:00,
2013-03-03 07:02:00,34.5,-2.4,30.15,SSW,192,15.4,15.4,20,-99.99,,---,-99.99,VWS V14.01,2013-03-03 15:02:00,
2013-03-03 07:07:00,34.5,-2.4,30.15,SSW,200,17.4,17.4,20,-99.99,,---,-99.99,VWS V14.01,2013-03-03 15:07:00,
2013-03-03 07:12:00,34.5,-2.4,30.15,SSW,198,15.4,15.4,20,-99.99,,---,-99.99,VWS V14.01,2013-03-03 15:12:00,
2013-03-03 07:17:00,34.5,-2.4,30.18,South,187,13.2,13.2,20,-99.99,,---,-99.99,VWS V14.01,2013-03-03 15:17:00,
2013-03-03 07:22:00,34.5,-2.4,30.18,South,184,15.0,15.0,20,-99.99,,---,-99.99,VWS V14.01,2013-03-03 15:22:00,
2013-03-03 07:27:00,34.5,-2.4,30.18,South,191,18.3,18.3,20,-99.99,,---,-99.99,VWS V14.01,2013-03-03 15:27:00,
2013-03-03 07:32:00,34.5,-2.4,30.18,SSW,208,12.8,12.8,20,-99.99,,---,-99.99,VWS V14.01,2013-03-03 15:32:00,
2013-03-03 07:37:00,34.5,-2.4,30.18,SSW,202,12.3,13.6,20,-99.99,,---,-99.99,VWS V14.01,2013-03-03 15:37:00,
2013-03-03 07:42:00,34.5,-2.4,30.18,South,186,15.4,18.3,20,-99.99,,---,-99.99,VWS V14.01,2013-03-03 15:42:00,
2013-03-03 07:47:00,34.5,-2.4,30.18,SSW,204,12.8,12.8,20,-99.99,,---,-99.99,VWS V14.01,2013-03-03 15:47:00,
2013-03-03 07:52:00,34.5,-2.4,30.18,South,184,13.2,13.2,20,-99.99,,---,-99.99,VWS V14.01,2013-03-03 15:52:00,
2013-03-03 07:57:00,34.5,-2.4,30.18,South,179,14.1,14.1,20,-99.99,,---,-99.99,VWS V14.01,2013-03-03 15:57:00,
2013-03-03 08:03:00,34.5,-2.4,30.15,South,174,13.2,13.2,20,-99.99,,---,-99.99,VWS V14.01,2013-03-03 16:03:00,
2013-03-03 08:08:00,34.5,-2.4,30.15,South,183,12.3,12.3,20,-99.99,,---,-99.99,VWS V14.01,2013-03-03 16:08:00,
2013-03-03 08:13:00,34.5,-2.4,30.15,SSE,164,17.4,17.4,20,-99.99,,---,-99.99,VWS V14.01,2013-03-03 16:13:00,
2013-03-03 08:18:00,34.5,-2.4,30.15,South,180,12.8,13.2,20,-99.99,,---,-99.99,VWS V14.01,2013-03-03 16:18:00,
2013-03-03 08:23:00,34.5,-2.4,30.15,South,186,11.4,19.7,20,-99.99,,---,-99.99,VWS V14.01,2013-03-03 16:23:00,
2013-03-03 08:28:00,34.5,-2.4,30.15,South,177,17.4,17.4,20,-99.99,,---,-99.99,VWS V14.01,2013-03-03 16:28:00,
2013-03-03 08:33:00,34.5,-2.4,30.15,SSE,149,16.8,16.8,20,-99.99,,---,-99.99,VWS V14.01,2013-03-03 16:33:00,
2013-03-03 08:38:00,34.5,-2.4,30.15,SSW,198,17.0,17.0,20,-99.99,,---,-99.99,VWS V14.01,2013-03-03 16:38:00,
2013-03-03 08:43:00,34.5,-2.4,30.15,SSE,164,17.0,17.0,20,-99.99,,---,-99.99,VWS V14.01,2013-03-03 16:43:00,
2013-03-03 08:48:00,34.5,-2.4,30.15,SSE,156,15.4,15.4,20,-99.99,,---,-99.99,VWS V14.01,2013-03-03 16:48:00,
2013-03-03 08:53:00,34.5,-2.4,30.15,SSE,168,15.4,15.4,20,-99.99,,---,-99.99,VWS V14.01,2013-03-03 16:53:00,
2013-03-03 08:58:00,34.5,-2.4,30.15,SSE,151,11.9,12.8,20,-99.99,,---,-99.99,VWS V14.01,2013-03-03 16:58:00,
2013-03-03 09:03:00,34.5,-2.4,30.15,South,187,12.8,12.8,20,-99.99,,---,-99.99,VWS V14.01,2013-03-03 17:03:00,
2013-03-03 09:08:00,34.5,-2.4,30.15,South,182,8.3,8.3,20,-99.99,,---,-99.99,VWS V14.01,2013-03-03 17:08:00,
2013-03-03 09:13:00,34.5,-2.4,30.15,SSE,158,8.1,11.0,20,-99.99,,---,-99.99,VWS V14.01,2013-03-03 17:13:00,
2013-03-03 09:18:00,34.5,-2.4,30.15,SSE,160,6.7,6.7,20,-99.99,,---,-99.99,VWS V14.01,2013-03-03 17:18:00,
2013-03-03 09:23:00,34.5,-2.4,30.15,SSE,163,10.5,10.5,20,-99.99,,---,-99.99,VWS V14.01,2013-03-03 17:23:00,
2013-03-03 09:28:00,34.5,-2.4,30.15,SSE,154,10.5,10.5,20,-99.99,,---,-99.99,VWS V14.01,2013-03-03 17:28:00,
2013-03-03 09:33:00,34.5,-2.4,30.15,SSE,168,15.0,15.0,20,-99.99,,---,-99.99,VWS V14.01,2013-03-03 17:33:00,
2013-03-03 09:38:00,34.5,-2.4,30.15,SSE,156,12.8,12.8,20,-99.99,,---,-99.99,VWS V14.01,2013-03-03 17:38:00,
2013-03-03 09:43:00,34.5,-2.4,30.15,South,176,12.8,12.8,20,-99.99,,---,-99.99,VWS V14.01,2013-03-03 17:43:00,
2013-03-03 09:48:00,34.5,-2.4,30.15,South,190,15.0,15.0,20,-99.99,,---,-99.99,VWS V14.01,2013-03-03 17:48:00,
2013-03-03 09:53:00,34.5,-2.4,30.15,South,171,13.2,13.2,20,-99.99,,---,-99.99,VWS V14.01,2013-03-03 17:53:00,
2013-03-03 09:58:00,34.5,-2.4,30.15,SSE,155,12.8,12.8,20,-99.99,,---,-99.99,VWS V14.01,2013-03-03 17:58:00,
2013-03-03 10:03:00,34.5,-2.4,30.15,SSE,164,13.2,13.2,20,-99.99,,---,-99.99,VWS V14.01,2013-03-03 18:03:00,
2013-03-03 10:08:00,34.5,-2.4,30.15,SSE,162,14.5,14.5,20,-99.99,,---,-99.99,VWS V14.01,2013-03-03 18:08:00,
2013-03-03 10:13:00,34.5,-2.4,30.15,South,189,7.6,7.6,20,-99.99,,---,-99.99,VWS V14.01,2013-03-03 18:13:00,
2013-03-03 10:18:00,34.5,-2.4,30.15,SSE,168,10.5,10.5,20,-99.99,,---,-99.99,VWS V14.01,2013-03-03 18:18:00,
2013-03-03 10:23:00,34.5,-2.4,30.15,South,174,0.0,0.0,20,-99.99,,---,-99.99,VWS V14.01,2013-03-03 18:23:00,
2013-03-03 10:28:00,34.5,-2.4,30.15,SSE,159,10.1,10.1,20,-99.99,,---,-99.99,VWS V14.01,2013-03-03 18:28:00,
2013-03-03 10:33:00,34.5,-2.4,30.15,SSE,166,13.2,13.2,20,-99.99,,---,-99.99,VWS V14.01,2013-03-03 18:33:00,
2013-03-03 10:38:00,34.5,-2.4,30.15,SSE,154,13.6,13.6,20,-99.99,,---,-99.99,VWS V14.01,2013-03-03 18:38:00,
2013-03-03 10:43:00,34.5,-2.4,30.15,SSE,155,0.0,0.0,20,-99.99,,---,-99.99,VWS V14.01,2013-03-03 18:43:00,
2013-03-03 10:48:00,45.9,7.1,30.12,South,179,3.1,8.7,20,-99.99,,---,-99.99,VWS V14.01,2013-03-03 18:48:00,
2013-03-03 10:53:00,45.9,7.1,30.12,South,186,5.8,5.8,20,-99.99,,---,-99.99,VWS V14.01,2013-03-03 18:53:00,
2013-03-03 10:58:00,45.9,7.1,30.12,South,179,0.0,0.0,20,-99.99,,---,-99.99,VWS V14.01,2013-03-03 18:58:00,
2013-03-03 11:03:00,45.9,7.1,30.12,South,174,14.5,14.5,20,-99.99,,---,-99.99,VWS V14.01,2013-03-03 19:03:00,
2013-03-03 11:08:00,45.9,7.1,30.12,SSE,162,8.7,8.7,20,-99.99,,---,-99.99,VWS V14.01,2013-03-03 19:08:00,
2013-03-03 11:13:00,46.6,6.5,30.12,South,185,5.8,5.8,19,-99.99,,---,-99.99,VWS V14.01,2013-03-03 19:13:00,
2013-03-03 11:18:00,46.6,6.5,30.12,South,183,0.0,0.0,19,-99.99,,---,-99.99,VWS V14.01,2013-03-03 19:18:00,
2013-03-03 11:23:00,46.6,6.5,30.12,SSE,156,4.0,4.0,19,-99.99,,---,-99.99,VWS V14.01,2013-03-03 19:23:00,
2013-03-03 11:28:00,46.6,6.5,30.12,SSW,199,8.7,8.7,19,-99.99,,---,-99.99,VWS V14.01,2013-03-03 19:28:00,
2013-03-03 11:33:00,46.6,6.5,30.12,SSE,150,11.0,11.0,19,-99.99,,---,-99.99,VWS V14.01,2013-03-03 19:33:00,
2013-03-03 11:38:00,46.6,6.5,30.12,SSE,147,8.7,8.7,19,-99.99,,---,-99.99,VWS V14.01,2013-03-03 19:38:00,
2013-03-03 11:43:00,46.6,6.5,30.12,South,185,10.1,10.1,19,-99.99,,---,-99.99,VWS V14.01,2013-03-03 19:43:00,
2013-03-03 11:48:00,46.6,6.5,30.12,SE,139,5.8,5.8,19,-99.99,,---,-99.99,VWS V14.01,2013-03-03 19:48:00,
2013-03-03 11:53:00,46.6,6.5,30.12,SE,139,5.8,5.8,19,-99.99,,---,-99.99,VWS V14.01,2013-03-03 19:53:00,
2013-03-03 11:58:00,47.5,7.3,30.12,ESE,106,7.6,7.6,19,-99.99,,---,-99.99,VWS V14.01,2013-03-03 19:58:00,
2013-03-03 12:03:00,47.5,7.3,30.12,SSE,157,9.2,9.2,19,-99.99,,---,-99.99,VWS V14.01,2013-03-03 20:03:00,
2013-03-03 12:08:00,47.5,7.3,30.12,South,175,8.7,8.7,19,-99.99,,---,-99.99,VWS V14.01,2013-03-03 20:08:00,
2013-03-03 12:13:00,47.5,7.3,30.12,South,172,13.2,13.2,19,-99.99,,---,-99.99,VWS V14.01,2013-03-03 20:13:00,
2013-03-03 12:18:00,47.5,7.3,30.12,SW,217,11.0,11.0,19,-99.99,,---,-99.99,VWS V14.01,2013-03-03 20:18:00,
2013-03-03 12:23:00,45.1,6.5,30.09,South,184,8.3,8.3,20,-99.99,,---,-99.99,VWS V14.01,2013-03-03 20:23:00,
2013-03-03 12:28:00,45.1,6.5,30.09,South,172,10.1,10.1,20,-99.99,,---,-99.99,VWS V14.01,2013-03-03 20:28:00,
2013-03-03 12:33:00,45.1,6.5,30.09,South,185,10.5,10.5,20,-99.99,,---,-99.99,VWS V14.01,2013-03-03 20:33:00,
2013-03-03 12:38:00,45.1,6.5,30.09,SW,235,5.8,5.8,20,-99.99,,---,-99.99,VWS V14.01,2013-03-03 20:38:00,
2013-03-03 12:43:00,44.8,6.2,30.09,SSE,167,0.0,3.1,20,-99.99,,---,-99.99,VWS V14.01,2013-03-03 20:43:00,
2013-03-03 12:48:00,44.8,6.2,30.09,South,191,10.1,12.3,20,-99.99,,---,-99.99,VWS V14.01,2013-03-03 20:48:00,
2013-03-03 12:53:00,44.8,6.2,30.09,South,183,7.6,7.6,20,-99.99,,---,-99.99,VWS V14.01,2013-03-03 20:53:00,
2013-03-03 12:58:00,44.8,6.2,30.09,SSW,202,8.1,8.1,20,-99.99,,---,-99.99,VWS V14.01,2013-03-03 20:58:00,
2013-03-03 13:03:00,44.8,6.2,30.09,South,178,10.1,10.1,20,-99.99,,---,-99.99,VWS V14.01,2013-03-03 21:03:00,
2013-03-03 13:08:00,42.6,5.4,30.09,SSW,197,8.7,8.7,21,-99.99,,---,-99.99,VWS V14.01,2013-03-03 21:08:00,
2013-03-03 13:13:00,42.6,5.4,30.09,SSE,157,10.5,10.5,21,-99.99,,---,-99.99,VWS V14.01,2013-03-03 21:13:00,
2013-03-03 13:18:00,42.6,5.4,30.09,SSE,153,15.4,15.4,21,-99.99,,---,-99.99,VWS V14.01,2013-03-03 21:18:00,
2013-03-03 13:23:00,42.6,5.4,30.09,South,181,8.3,15.4,21,-99.99,,---,-99.99,VWS V14.01,2013-03-03 21:23:00,
2013-03-03 13:28:00,42.6,5.4,30.09,South,178,8.7,8.7,21,-99.99,,---,-99.99,VWS V14.01,2013-03-03 21:28:00,
2013-03-03 13:33:00,40.8,3.9,30.06,South,184,8.3,8.3,21,-99.99,,---,-99.99,VWS V14.01,2013-03-03 21:33:00,
2013-03-03 13:39:00,40.8,3.9,30.06,South,184,8.3,8.3,21,-99.99,,---,-99.99,VWS V14.01,2013-03-03 21:39:00,
2013-03-03 13:44:00,40.8,3.9,30.06,South,169,17.0,17.0,21,-99.99,,---,-99.99,VWS V14.01,2013-03-03 21:44:00,
2013-03-03 13:49:00,40.8,3.9,30.06,SSW,196,3.6,3.6,21,-99.99,,---,-99.99,VWS V14.01,2013-03-03 21:49:00,
2013-03-03 13:54:00,40.8,3.9,30.06,SE,129,12.8,12.8,21,-99.99,,---,-99.99,VWS V14.01,2013-03-03 21:54:00,
2013-03-03 13:59:00,40.8,3.9,30.06,South,179,8.3,8.3,21,-99.99,,---,-99.99,VWS V14.01,2013-03-03 21:59:00,
2013-03-03 14:04:00,40.8,3.9,30.06,South,184,8.7,8.7,21,-99.99,,---,-99.99,VWS V14.01,2013-03-03 22:04:00,
2013-03-03 14:09:00,40.8,3.9,30.06,South,172,10.5,10.5,21,-99.99,,---,-99.99,VWS V14.01,2013-03-03 22:09:00,
2013-03-03 14:14:00,40.8,3.9,30.06,South,170,11.4,11.4,21,-99.99,,---,-99.99,VWS V14.01,2013-03-03 22:14:00,
2013-03-03 14:19:00,40.8,3.9,30.06,South,176,15.0,15.0,21,-99.99,,---,-99.99,VWS V14.01,2013-03-03 22:19:00,
2013-03-03 14:24:00,41.2,4.2,30.06,SSE,153,15.9,15.9,21,-99.99,,---,-99.99,VWS V14.01,2013-03-03 22:24:00,
2013-03-03 14:29:00,41.2,4.2,30.06,South,182,13.6,13.6,21,-99.99,,---,-99.99,VWS V14.01,2013-03-03 22:29:00,
2013-03-03 14:34:00,41.2,4.2,30.06,South,171,12.8,12.8,21,-99.99,,---,-99.99,VWS V14.01,2013-03-03 22:34:00,
2013-03-03 14:39:00,41.2,4.2,30.06,SSW,207,8.3,8.3,21,-99.99,,---,-99.99,VWS V14.01,2013-03-03 22:39:00,
2013-03-03 14:44:00,40.3,3.5,30.06,SSW,210,13.6,13.6,21,-99.99,,---,-99.99,VWS V14.01,2013-03-03 22:44:00,
2013-03-03 14:49:00,40.3,3.5,30.06,SSW,210,13.6,13.6,21,-99.99,,---,-99.99,VWS V14.01,2013-03-03 22:49:00,
2013-03-03 14:54:00,40.3,3.5,30.06,South,178,5.8,5.8,21,-99.99,,---,-99.99,VWS V14.01,2013-03-03 22:54:00,
2013-03-03 14:59:00,40.3,3.5,30.06,SSW,194,19.7,19.7,21,-99.99,,---,-99.99,VWS V14.01,2013-03-03 22:59:00,
2013-03-03 15:04:00,38.7,2.1,30.06,SSW,194,19.7,19.7,21,-99.99,,---,-99.99,VWS V14.01,2013-03-03 23:04:00,
2013-03-03 15:09:00,38.7,2.1,30.06,SSE,166,13.2,13.2,21,-99.99,,---,-99.99,VWS V14.01,2013-03-03 23:09:00,
2013-03-03 15:14:00,38.7,2.1,30.06,SSE,166,13.2,13.2,21,-99.99,,---,-99.99,VWS V14.01,2013-03-03 23:14:00,
2013-03-03 15:19:00,36.7,1.4,30.06,SSE,162,7.6,7.6,22,-99.99,,---,-99.99,VWS V14.01,2013-03-03 23:19:00,
2013-03-03 15:24:00,36.7,1.4,30.06,SW,224,12.3,12.3,22,-99.99,,---,-99.99,VWS V14.01,2013-03-03 23:24:00,
2013-03-03 15:29:00,36.1,2.8,30.06,SSW,200,9.6,9.6,24,-99.99,,---,-99.99,VWS V14.01,2013-03-03 23:29:00,
2013-03-03 15:34:00,36.1,2.8,30.06,South,181,12.8,12.8,24,-99.99,,---,-99.99,VWS V14.01,2013-03-03 23:34:00,
2013-03-03 15:39:00,36.5,5.7,30.06,South,181,12.8,12.8,27,-99.99,,---,-99.99,VWS V14.01,2013-03-03 23:39:00,
2013-03-03 15:44:00,36.5,7.3,30.06,South,181,12.8,12.8,29,-99.99,,---,-99.99,VWS V14.01,2013-03-03 23:44:00,
2013-03-03 15:49:00,36.7,7.4,30.06,South,181,12.8,12.8,29,-99.99,,---,-99.99,VWS V14.01,2013-03-03 23:49:00,
2013-03-03 15:54:00,36.9,8.3,30.06,South,181,12.8,12.8,30,-99.99,,---,-99.99,VWS V14.01,2013-03-03 23:54:00,
2013-03-03 15:59:00,36.9,8.3,30.06,South,181,12.8,12.8,30,-99.99,,---,-99.99,VWS V14.01,2013-03-03 23:59:00,
2013-03-03 16:04:00,36.5,8.0,30.06,South,181,12.8,12.8,30,-99.99,,---,-99.99,VWS V14.01,2013-03-04 00:04:00,
2013-03-03 16:09:00,36.9,8.3,30.06,South,181,12.8,12.8,30,-99.99,,---,-99.99,VWS V14.01,2013-03-04 00:09:00,
2013-03-03 16:14:00,36.7,8.2,30.06,South,181,12.8,12.8,30,-99.99,,---,-99.99,VWS V14.01,2013-03-04 00:14:00,
2013-03-03 16:19:00,36.5,8.0,30.06,South,181,12.8,12.8,30,-99.99,,---,-99.99,VWS V14.01,2013-03-04 00:19:00,
2013-03-03 16:24:00,36.7,8.9,30.06,South,181,12.8,12.8,31,-99.99,,---,-99.99,VWS V14.01,2013-03-04 00:24:00,
2013-03-03 16:29:00,36.9,9.1,30.06,South,181,12.8,12.8,31,-99.99,,---,-99.99,VWS V14.01,2013-03-04 00:29:00,
2013-03-03 16:34:00,36.9,9.1,30.06,South,181,12.8,12.8,31,-99.99,,---,-99.99,VWS V14.01,2013-03-04 00:34:00,
2013-03-03 16:39:00,37.2,10.1,30.06,South,181,12.8,12.8,32,-99.99,,---,-99.99,VWS V14.01,2013-03-04 00:39:00,
2013-03-03 16:44:00,37.2,10.1,30.06,South,181,12.8,12.8,32,-99.99,,---,-99.99,VWS V14.01,2013-03-04 00:44:00,
2013-03-03 16:49:00,37.6,10.4,30.06,South,181,12.8,12.8,32,-99.99,,---,-99.99,VWS V14.01,2013-03-04 00:49:00,
2013-03-03 16:54:00,37.9,10.7,30.06,South,181,12.8,12.8,32,-99.99,,---,-99.99,VWS V14.01,2013-03-04 00:54:00,
2013-03-03 16:59:00,38.1,11.6,30.06,South,181,12.8,12.8,33,-99.99,,---,-99.99,VWS V14.01,2013-03-04 00:59:00,
2013-03-03 17:04:00,38.3,11.7,30.06,South,181,12.8,12.8,33,-99.99,,---,-99.99,VWS V14.01,2013-03-04 01:04:00,
2013-03-03 17:09:00,38.5,11.9,30.06,South,181,12.8,12.8,33,-99.99,,---,-99.99,VWS V14.01,2013-03-04 01:09:00,
2013-03-03 17:14:00,38.7,12.1,30.06,South,181,12.8,12.8,33,-99.99,,---,-99.99,VWS V14.01,2013-03-04 01:14:00,
2013-03-03 17:19:00,38.7,12.1,30.06,South,181,12.8,12.8,33,-99.99,,---,-99.99,VWS V14.01,2013-03-04 01:19:00,
2013-03-03 17:24:00,38.8,12.9,30.06,South,181,12.8,12.8,34,-99.99,,---,-99.99,VWS V14.01,2013-03-04 01:24:00,
2013-03-03 17:29:00,39.0,13.0,30.06,South,181,12.8,12.8,34,-99.99,,---,-99.99,VWS V14.01,2013-03-04 01:29:00,
2013-03-03 17:34:00,39.0,13.0,30.06,South,181,12.8,12.8,34,-99.99,,---,-99.99,VWS V14.01,2013-03-04 01:34:00,
2013-03-03 17:39:00,38.8,13.5,30.06,South,181,12.8,12.8,35,-99.99,,---,-99.99,VWS V14.01,2013-03-04 01:39:00,
2013-03-03 17:44:00,39.0,13.7,30.06,South,181,12.8,12.8,35,-99.99,,---,-99.99,VWS V14.01,2013-03-04 01:44:00,
2013-03-03 17:49:00,39.2,13.9,30.06,South,181,12.8,12.8,35,-99.99,,---,-99.99,VWS V14.01,2013-03-04 01:49:00,
2013-03-03 17:54:00,39.2,13.9,30.06,South,181,12.8,12.8,35,-99.99,,---,-99.99,VWS V14.01,2013-03-04 01:54:00,
2013-03-03 17:59:00,39.2,13.9,30.06,South,181,12.8,12.8,35,-99.99,,---,-99.99,VWS V14.01,2013-03-04 01:59:00,
2013-03-03 18:04:00,39.4,15.3,30.06,South,181,12.8,12.8,37,-99.99,,---,-99.99,VWS V14.01,2013-03-04 02:04:00,
2013-03-03 18:09:00,39.4,15.9,30.06,South,181,12.8,12.8,38,-99.99,,---,-99.99,VWS V14.01,2013-03-04 02:09:00,
2013-03-03 18:14:00,39.6,16.1,30.06,South,181,12.8,12.8,38,-99.99,,---,-99.99,VWS V14.01,2013-03-04 02:14:00,
2013-03-03 18:19:00,39.7,16.8,30.06,WSW,239,17.4,17.4,39,-99.99,,---,-99.99,VWS V14.01,2013-03-04 02:19:00,
2013-03-03 18:24:00,39.7,16.8,30.06,WSW,239,17.4,17.4,39,-99.99,,---,-99.99,VWS V14.01,2013-03-04 02:24:00,
2013-03-03 18:29:00,39.7,16.8,30.06,WSW,239,17.4,17.4,39,-99.99,,---,-99.99,VWS V14.01,2013-03-04 02:29:00,
2013-03-03 18:34:00,39.7,17.4,30.06,WSW,239,17.4,17.4,40,-99.99,,---,-99.99,VWS V14.01,2013-03-04 02:34:00,
2013-03-03 18:39:00,39.7,17.4,30.06,WSW,239,17.4,17.4,40,-99.99,,---,-99.99,VWS V14.01,2013-03-04 02:39:00,
2013-03-03 18:44:00,39.9,18.1,30.06,WSW,239,17.4,17.4,41,-99.99,,---,-99.99,VWS V14.01,2013-03-04 02:44:00,
2013-03-03 18:49:00,39.9,18.1,30.06,WSW,239,17.4,17.4,41,-99.99,,---,-99.99,VWS V14.01,2013-03-04 02:49:00,
2013-03-03 18:54:00,39.9,18.7,30.06,WSW,239,17.4,17.4,42,-99.99,,---,-99.99,VWS V14.01,2013-03-04 02:54:00,
2013-03-03 19:00:00,39.9,18.7,30.06,WSW,239,17.4,17.4,42,-99.99,,---,-99.99,VWS V14.01,2013-03-04 03:00:00,
2013-03-03 19:05:00,39.9,18.7,30.06,WSW,239,17.4,17.4,42,-99.99,,---,-99.99,VWS V14.01,2013-03-04 03:05:00,
2013-03-03 19:10:00,39.9,18.7,30.06,WSW,239,17.4,17.4,42,-99.99,,---,-99.99,VWS V14.01,2013-03-04 03:10:00,
2013-03-03 19:15:00,39.9,19.2,30.06,WSW,239,17.4,17.4,43,-99.99,,---,-99.99,VWS V14.01,2013-03-04 03:15:00,
2013-03-03 19:20:00,39.9,19.8,30.06,WSW,239,17.4,17.4,44,-99.99,,---,-99.99,VWS V14.01,2013-03-04 03:20:00,
2013-03-03 19:25:00,39.9,20.3,30.06,WSW,239,17.4,17.4,45,-99.99,,---,-99.99,VWS V14.01,2013-03-04 03:25:00,
2013-03-03 19:30:00,39.9,20.8,30.06,WSW,239,17.4,17.4,46,-99.99,,---,-99.99,VWS V14.01,2013-03-04 03:30:00,
2013-03-03 19:35:00,39.9,20.8,30.06,WSW,239,17.4,17.4,46,-99.99,,---,-99.99,VWS V14.01,2013-03-04 03:35:00,
2013-03-03 19:40:00,39.9,21.8,30.06,WSW,239,17.4,17.4,48,-99.99,,---,-99.99,VWS V14.01,2013-03-04 03:40:00,
2013-03-03 19:45:00,39.9,22.3,30.06,WSW,239,17.4,17.4,49,-99.99,,---,-99.99,VWS V14.01,2013-03-04 03:45:00,
2013-03-03 19:50:00,39.9,22.3,30.06,WSW,239,17.4,17.4,49,-99.99,,---,-99.99,VWS V14.01,2013-03-04 03:50:00,
2013-03-03 19:55:00,39.9,22.3,30.06,WSW,239,17.4,17.4,49,-99.99,,---,-99.99,VWS V14.01,2013-03-04 03:55:00,
2013-03-03 20:00:00,39.7,22.2,30.06,SW,216,10.5,17.4,49,-99.99,,---,-99.99,VWS V14.01,2013-03-04 04:00:00,
2013-03-03 20:05:00,39.9,22.8,30.06,SW,216,10.5,10.5,50,-99.99,,---,-99.99,VWS V14.01,2013-03-04 04:05:00,
2013-03-03 20:10:00,39.9,23.3,30.06,SW,216,10.5,10.5,51,-99.99,,---,-99.99,VWS V14.01,2013-03-04 04:10:00,
2013-03-03 20:15:00,39.9,23.3,30.06,SW,216,10.5,10.5,51,-99.99,,---,-99.99,VWS V14.01,2013-03-04 04:15:00,
2013-03-03 20:20:00,39.9,23.7,30.06,SW,216,10.5,10.5,52,-99.99,,---,-99.99,VWS V14.01,2013-03-04 04:20:00,
2013-03-03 20:25:00,39.9,23.7,30.06,SW,216,10.5,10.5,52,-99.99,,---,-99.99,VWS V14.01,2013-03-04 04:25:00,
2013-03-03 20:30:00,39.7,23.6,30.06,SW,216,10.5,10.5,52,-99.99,,---,-99.99,VWS V14.01,2013-03-04 04:30:00,
2013-03-03 20:35:00,39.7,23.6,30.06,SW,216,10.5,10.5,52,-99.99,,---,-99.99,VWS V14.01,2013-03-04 04:35:00,
2013-03-03 20:40:00,39.4,23.7,30.06,SW,216,10.5,10.5,53,-99.99,,---,-99.99,VWS V14.01,2013-03-04 04:40:00,
2013-03-03 20:45:00,39.0,23.4,30.06,SW,216,10.5,10.5,53,-99.99,,---,-99.99,VWS V14.01,2013-03-04 04:45:00,
2013-03-03 20:50:00,39.2,23.5,30.06,SW,216,10.5,10.5,53,-99.99,,---,-99.99,VWS V14.01,2013-03-04 04:50:00,
2013-03-03 20:55:00,39.2,23.5,30.06,SW,216,10.5,10.5,53,-99.99,,---,-99.99,VWS V14.01,2013-03-04 04:55:00,
2013-03-03 21:00:00,39.2,24.0,30.06,SW,216,10.5,10.5,54,-99.99,,---,-99.99,VWS V14.01,2013-03-04 05:00:00,
2013-03-03 21:05:00,39.4,24.6,30.06,SW,216,10.5,10.5,55,-99.99,,---,-99.99,VWS V14.01,2013-03-04 05:05:00,
2013-03-03 21:10:00,39.4,24.6,30.06,SW,216,10.5,10.5,55,-99.99,,---,-99.99,VWS V14.01,2013-03-04 05:10:00,
2013-03-03 21:15:00,39.6,25.6,30.06,SW,216,10.5,10.5,57,-99.99,,---,-99.99,VWS V14.01,2013-03-04 05:15:00,
2013-03-03 21:20:00,39.6,25.6,30.06,SW,216,10.5,10.5,57,-99.99,,---,-99.99,VWS V14.01,2013-03-04 05:20:00,
2013-03-03 21:25:00,39.6,25.6,30.06,SW,216,10.5,10.5,57,-99.99,,---,-99.99,VWS V14.01,2013-03-04 05:25:00,
2013-03-03 21:30:00,39.4,25.4,30.06,SW,216,10.5,10.5,57,-99.99,,---,-99.99,VWS V14.01,2013-03-04 05:30:00,
2013-03-03 21:35:00,39.2,25.7,30.06,SW,216,10.5,10.5,58,-99.99,,---,-99.99,VWS V14.01,2013-03-04 05:35:00,
2013-03-03 21:40:00,39.0,25.5,30.06,SW,216,10.5,10.5,58,-99.99,,---,-99.99,VWS V14.01,2013-03-04 05:40:00,
2013-03-03 21:45:00,38.8,24.9,30.06,WSW,250,13.6,13.6,57,-99.99,,---,-99.99,VWS V14.01,2013-03-04 05:45:00,
2013-03-03 21:50:00,38.7,24.8,30.06,SW,225,13.2,13.2,57,-99.99,,---,-99.99,VWS V14.01,2013-03-04 05:50:00,
2013-03-03 21:55:00,38.5,24.6,30.06,SW,232,15.0,15.0,57,-99.99,,---,-99.99,VWS V14.01,2013-03-04 05:55:00,
2013-03-03 22:00:00,38.5,24.6,30.06,SW,222,15.4,15.4,57,-99.99,,---,-99.99,VWS V14.01,2013-03-04 06:00:00,
2013-03-03 22:05:00,38.5,24.6,30.06,SW,236,14.5,14.5,57,-99.99,,---,-99.99,VWS V14.01,2013-03-04 06:05:00,
2013-03-03 22:10:00,38.5,25.0,30.06,SW,231,15.0,15.0,58,-99.99,,---,-99.99,VWS V14.01,2013-03-04 06:10:00,
2013-03-03 22:15:00,38.5,25.0,30.06,SW,236,8.7,8.7,58,-99.99,,---,-99.99,VWS V14.01,2013-03-04 06:15:00,
2013-03-03 22:20:00,38.5,25.0,30.06,SSW,211,11.0,11.0,58,-99.99,,---,-99.99,VWS V14.01,2013-03-04 06:20:00,
2013-03-03 22:25:00,38.5,25.0,30.06,SW,224,13.2,13.2,58,-99.99,,---,-99.99,VWS V14.01,2013-03-04 06:25:00,
2013-03-03 22:30:00,38.1,24.7,30.06,SW,233,10.5,10.5,58,-99.99,,---,-99.99,VWS V14.01,2013-03-04 06:30:00,
2013-03-03 22:35:00,38.3,24.8,30.06,SW,231,15.9,15.9,58,-99.99,,---,-99.99,VWS V14.01,2013-03-04 06:35:00,
2013-03-03 22:40:00,38.3,24.8,30.06,SW,222,13.2,13.2,58,-99.99,,---,-99.99,VWS V14.01,2013-03-04 06:40:00,
2013-03-03 22:45:00,38.3,24.8,30.06,SW,235,15.0,15.0,58,-99.99,,---,-99.99,VWS V14.01,2013-03-04 06:45:00,
2013-03-03 22:50:00,38.3,24.8,30.06,SW,227,15.0,15.0,58,-99.99,,---,-99.99,VWS V14.01,2013-03-04 06:50:00,
2013-03-03 22:55:00,38.3,25.2,30.06,WSW,237,15.0,15.0,59,-99.99,,---,-99.99,VWS V14.01,2013-03-04 06:55:00,
2013-03-03 23:00:00,38.3,25.2,30.06,SW,222,13.6,13.6,59,-99.99,,---,-99.99,VWS V14.01,2013-03-04 07:00:00,
2013-03-03 23:05:00,38.3,25.2,30.06,SW,225,10.5,10.5,59,-99.99,,---,-99.99,VWS V14.01,2013-03-04 07:05:00,
2013-03-03 23:10:00,38.5,25.4,30.06,SW,230,10.1,12.8,59,-99.99,,---,-99.99,VWS V14.01,2013-03-04 07:10:00,
2013-03-03 23:15:00,38.5,25.4,30.06,SW,230,10.1,10.1,59,-99.99,,---,-99.99,VWS V14.01,2013-03-04 07:15:00,
2013-03-03 23:20:00,38.5,25.4,30.06,SW,215,8.7,8.7,59,-99.99,,---,-99.99,VWS V14.01,2013-03-04 07:20:00,
2013-03-03 23:25:00,38.5,25.4,30.06,SW,231,10.5,10.5,59,-99.99,,---,-99.99,VWS V14.01,2013-03-04 07:25:00,
2013-03-03 23:30:00,38.5,25.4,30.06,SW,225,8.3,8.3,59,-99.99,,---,-99.99,VWS V14.01,2013-03-04 07:30:00,
2013-03-03 23:35:00,38.5,25.4,30.06,SW,220,8.7,8.7,59,-99.99,,---,-99.99,VWS V14.01,2013-03-04 07:35:00,
2013-03-03 23:40:00,38.5,25.4,30.06,SW,231,10.5,10.5,59,-99.99,,---,-99.99,VWS V14.01,2013-03-04 07:40:00,
2013-03-03 23:45:00,38.5,25.4,30.06,SW,236,11.0,11.0,59,-99.99,,---,-99.99,VWS V14.01,2013-03-04 07:45:00,
2013-03-03 23:50:00,38.1,25.9,30.09,SW,236,11.0,11.0,61,-99.99,,---,-99.99,VWS V14.01,2013-03-04 07:50:00,
2013-03-03 23:55:00,38.1,25.9,30.09,WSW,241,8.1,8.1,61,-99.99,,---,-99.99,VWS V14.01,2013-03-04 07:55:00,